Time;durP1;ratioP1;P1;durP2;ratioP2;P2;SDS_P1;SDS_P2;PMS_P1;PMS_P2;Temp;Humidity;BMP_temperature;BMP_pressure;BME280_temperature;BME280_humidity;BME280_pressure;Samples;Min_cycle;Max_cycle;Signal;HPM_P1;HPM_P2
2022/11/24 00:01:08;;;;;;;;;;;;;;;10.91;91.37;96016.06;5089065;28;19924;-79
2022/11/24 00:03:36;;;;;;;;;;;;;;;10.83;92.05;96015.72;5089265;28;20387;-78
2022/11/24 00:06:09;;;;;;;;;;;;;;;10.92;91.28;96006.53;5089111;28;19940;-78
2022/11/24 00:08:37;;;;;;;;;;;;;;;10.94;91.05;96009.84;5088989;28;19963;-78
2022/11/24 00:11:09;;;;;;;;;;;;;;;11.01;90.46;96009.38;5089545;28;19924;-78
2022/11/24 00:13:40;;;;;;;;;;;;;;;11.00;90.66;96007.72;5089032;28;19931;-79
2022/11/24 00:16:11;;;;;;;;;;;;;;;10.97;90.15;96007.06;5089009;28;19944;-79
2022/11/24 00:18:39;;;;;;;;;;;;;;;10.98;90.56;95998.38;5087387;28;19977;-77
2022/11/24 00:21:06;;;;;;;;;;;;;;;10.99;90.31;96003.44;5089057;28;19924;-78
2022/11/24 00:23:35;;;;;;;;;;;;;;;10.87;90.75;96003.41;5090078;28;19924;-77
2022/11/24 00:26:06;;;;;;;;;;;;;;;10.73;90.85;95998.25;5093176;28;19924;-77
2022/11/24 00:28:33;;;;;;;;;;;;;;;10.57;91.23;95999.22;5088727;28;19968;-78
2022/11/24 00:31:01;;;;;;;;;;;;;;;10.39;91.67;96000.34;5087097;28;19928;-77
2022/11/24 00:33:28;;;;;;;;;;;;;;;10.42;91.54;96002.78;5089164;28;20361;-79
2022/11/24 00:35:56;;;;;;;;;;;;;;;10.41;91.65;96002.84;5088629;28;19981;-78
2022/11/24 00:38:23;;;;;;;;;;;;;;;10.42;91.28;96004.53;5088507;28;19931;-79
2022/11/24 00:40:50;;;;;;;;;;;;;;;10.50;91.07;96008.31;5088511;28;19957;-78
2022/11/24 00:43:17;;;;;;;;;;;;;;;10.48;90.85;96001.56;5070188;28;19963;-78
2022/11/24 00:45:44;;;;;;;;;;;;;;;10.37;90.42;96003.94;5087065;28;19934;-78
2022/11/24 00:48:11;;;;;;;;;;;;;;;10.32;87.47;95999.09;5088281;28;19924;-78
2022/11/24 00:50:38;;;;;;;;;;;;;;;10.32;85.67;96008.59;5088562;28;19935;-79
2022/11/24 00:53:05;;;;;;;;;;;;;;;10.30;85.74;96010.44;5087286;28;20118;-77
2022/11/24 00:55:33;;;;;;;;;;;;;;;10.32;85.05;96003.44;5087194;28;20387;-77
2022/11/24 00:58:01;;;;;;;;;;;;;;;10.30;84.70;96010.44;5070015;28;19924;-77
2022/11/24 01:00:28;;;;;;;;;;;;;;;10.29;83.92;96019.97;5087596;28;19928;-77
2022/11/24 01:02:55;;;;;;;;;;;;;;;10.26;83.57;96014.97;5086687;28;19924;-76
2022/11/24 01:05:22;;;;;;;;;;;;;;;10.27;83.50;96005.44;5086632;28;19924;-76
2022/11/24 01:07:49;;;;;;;;;;;;;;;10.18;82.99;96011.19;5088448;28;19924;-76
2022/11/24 01:10:16;;;;;;;;;;;;;;;10.16;82.72;96008.69;5088192;28;20413;-78
2022/11/24 01:12:46;;;;;;;;;;;;;;;10.13;81.87;96005.47;5088284;28;20284;-78
2022/11/24 01:15:13;;;;;;;;;;;;;;;10.06;82.12;96004.13;5086869;28;20371;-77
2022/11/24 01:17:40;;;;;;;;;;;;;;;10.01;82.25;96003.59;5087971;28;19930;-77
2022/11/24 01:20:08;;;;;;;;;;;;;;;9.89;83.07;96002.56;5086704;28;19947;-77
2022/11/24 01:22:37;;;;;;;;;;;;;;;10.13;82.81;96010.63;5092675;28;20019;-77
2022/11/24 01:25:04;;;;;;;;;;;;;;;10.32;82.60;96008.59;5087961;28;19940;-78
2022/11/24 01:27:31;;;;;;;;;;;;;;;10.41;82.54;96010.59;5086496;28;20023;-79
2022/11/24 01:29:59;;;;;;;;;;;;;;;10.43;82.62;96012.19;5087926;28;19941;-76
2022/11/24 01:32:26;;;;;;;;;;;;;;;10.54;82.43;96020.13;5086669;28;20035;-76
2022/11/24 01:34:53;;;;;;;;;;;;;;;10.55;82.99;96026.16;5088054;28;19928;-77
2022/11/24 01:37:20;;;;;;;;;;;;;;;10.61;82.86;96015.41;5086149;28;19985;-79
2022/11/24 01:39:47;;;;;;;;;;;;;;;10.63;82.35;96016.13;5087796;28;19955;-77
2022/11/24 01:42:14;;;;;;;;;;;;;;;10.58;81.95;96010.41;5086286;28;20015;-77
2022/11/24 01:44:41;;;;;;;;;;;;;;;10.54;82.25;96012.34;5087351;28;19927;-77
2022/11/24 01:47:11;;;;;;;;;;;;;;;10.52;82.75;96015.97;5086127;28;19924;-79
2022/11/24 01:49:52;;;;;;;;;;;;;;;10.42;83.34;96014.88;5086178;28;20020;-78
2022/11/24 01:52:24;;;;;;;;;;;;;;;10.49;83.00;96006.63;5087430;28;20304;-78
2022/11/24 01:54:56;;;;;;;;;;;;;;;10.35;83.52;96013.56;5087312;28;20019;-77
2022/11/24 01:57:26;;;;;;;;;;;;;;;10.27;83.29;96018.38;5087428;28;20022;-77
2022/11/24 01:59:56;;;;;;;;;;;;;;;10.26;83.07;96017.53;5087518;28;19924;-77
2022/11/24 02:02:30;;;;;;;;;;;;;;;10.17;83.01;96014.69;5087373;28;19928;-81
2022/11/24 02:05:20;;;;;;;;;;;;;;;9.88;82.81;96024.16;5086577;28;19931;-78
2022/11/24 02:07:48;;;;;;;;;;;;;;;9.82;83.02;96014.19;5087583;28;19980;-79
2022/11/24 02:10:15;;;;;;;;;;;;;;;9.67;83.70;96015.91;5086248;28;19931;-79
2022/11/24 02:12:45;;;;;;;;;;;;;;;9.66;83.93;96014.28;5087971;28;19924;-79
2022/11/24 02:15:33;;;;;;;;;;;;;;;9.69;83.92;96016.66;5090394;28;20417;-80
2022/11/24 02:18:00;;;;;;;;;;;;;;;9.73;84.35;96015.56;5090567;28;19924;-78
2022/11/24 02:20:27;;;;;;;;;;;;;;;9.77;84.44;96017.03;5098158;28;20485;-78
2022/11/24 02:23:09;;;;;;;;;;;;;;;9.62;84.82;96017.94;5091416;28;19924;-81
2022/11/24 02:25:57;;;;;;;;;;;;;;;9.63;84.91;96009.25;5089841;28;20312;-80
2022/11/24 02:28:25;;;;;;;;;;;;;;;9.59;85.45;95999.19;5069963;28;20022;-80
2022/11/24 02:30:54;;;;;;;;;;;;;;;9.31;86.46;96002.56;5091384;28;20013;-80
2022/11/24 02:33:21;;;;;;;;;;;;;;;9.22;86.65;96008.22;5091000;28;19930;-79
2022/11/24 02:35:48;;;;;;;;;;;;;;;9.09;87.46;96001.28;5091004;28;20460;-80
2022/11/24 02:38:15;;;;;;;;;;;;;;;9.18;87.09;96000.75;5091477;28;19928;-80
2022/11/24 02:40:43;;;;;;;;;;;;;;;9.03;87.95;96002.44;5090839;28;20066;-78
2022/11/24 02:43:12;;;;;;;;;;;;;;;8.93;88.54;96009.88;5091052;28;20131;-80
2022/11/24 02:45:40;;;;;;;;;;;;;;;9.07;88.19;96009.09;5090924;28;19924;-81
2022/11/24 02:48:07;;;;;;;;;;;;;;;9.13;87.48;96008.75;5091180;28;19967;-78
2022/11/24 02:50:34;;;;;;;;;;;;;;;9.15;86.90;96014.66;5091019;28;19919;-78
2022/11/24 02:53:01;;;;;;;;;;;;;;;9.22;86.88;96007.41;5089379;28;19926;-78
2022/11/24 02:55:28;;;;;;;;;;;;;;;9.04;86.88;96004.13;5090642;28;19956;-77
2022/11/24 02:57:55;;;;;;;;;;;;;;;9.12;86.89;96001.94;5089185;28;20391;-78
2022/11/24 03:00:21;;;;;;;;;;;;;;;9.12;86.25;95996.75;5090467;28;19926;-76
2022/11/24 03:02:48;;;;;;;;;;;;;;;9.04;86.73;95993.78;5090765;28;19989;-78
2022/11/24 03:05:16;;;;;;;;;;;;;;;9.09;86.29;96006.44;5090819;28;19924;-77
2022/11/24 03:07:43;;;;;;;;;;;;;;;9.13;85.64;95993.25;5089042;28;19989;-77
2022/11/24 03:10:11;;;;;;;;;;;;;;;9.20;84.89;95994.56;5089474;28;19945;-77
2022/11/24 03:12:38;;;;;;;;;;;;;;;9.10;84.97;95998.59;5090334;28;20447;-78
2022/11/24 03:15:05;;;;;;;;;;;;;;;9.00;85.98;95997.47;5090490;28;19977;-77
2022/11/24 03:17:32;;;;;;;;;;;;;;;9.04;86.16;95998.94;5093038;28;19920;-76
2022/11/24 03:20:22;;;;;;;;;;;;;;;9.09;85.50;96002.09;5090769;28;20012;-79
2022/11/24 03:23:16;;;;;;;;;;;;;;;9.19;85.14;96002.41;5090104;28;20429;-77
2022/11/24 03:25:43;;;;;;;;;;;;;;;9.05;85.20;96004.97;5089626;28;19969;-77
2022/11/24 03:28:12;;;;;;;;;;;;;;;9.08;85.74;96008.19;5090194;28;19920;-80
2022/11/24 03:30:41;;;;;;;;;;;;;;;9.12;85.90;96012.25;5090790;28;19982;-80
2022/11/24 03:33:08;;;;;;;;;;;;;;;9.14;84.90;96017.34;5089300;28;19977;-81
2022/11/24 03:35:36;;;;;;;;;;;;;;;9.00;85.30;96012.97;5090978;28;20313;-78
2022/11/24 03:38:03;;;;;;;;;;;;;;;9.01;85.62;96010.28;5089592;28;19927;-80
2022/11/24 03:40:30;;;;;;;;;;;;;;;9.04;85.06;96017.03;5091032;28;19927;-79
2022/11/24 03:42:57;;;;;;;;;;;;;;;9.18;85.00;96018.81;5090158;28;19963;-78
2022/11/24 03:45:24;;;;;;;;;;;;;;;9.24;84.28;96024.47;5089837;28;20375;-81
2022/11/24 03:48:11;;;;;;;;;;;;;;;9.22;84.79;96018.56;5088389;28;19927;-81
2022/11/24 03:50:38;;;;;;;;;;;;;;;9.22;84.65;96018.56;5105465;28;20470;-79
2022/11/24 03:53:05;;;;;;;;;;;;;;;9.19;84.15;96018.72;5090368;28;19926;-80
2022/11/24 03:55:32;;;;;;;;;;;;;;;9.07;84.87;96029.75;5089693;28;19920;-80
2022/11/24 03:58:00;;;;;;;;;;;;;;;9.14;83.96;96023.34;5088544;28;19924;-78
2022/11/24 04:00:28;;;;;;;;;;;;;;;9.06;84.89;96028.09;5090217;28;20015;-84
2022/11/24 04:02:55;;;;;;;;;;;;;;;8.95;85.22;96030.44;5088309;28;19951;-79
2022/11/24 04:05:24;;;;;;;;;;;;;;;9.06;84.79;96027.25;5089240;28;19969;-76
2022/11/24 04:07:53;;;;;;;;;;;;;;;9.07;83.94;96037.50;5088070;28;20361;-80
2022/11/24 04:10:23;;;;;;;;;;;;;;;9.02;83.71;96030.03;5090451;28;19920;-80
2022/11/24 04:12:50;;;;;;;;;;;;;;;9.06;83.87;96038.44;5089865;28;19920;-81
2022/11/24 04:15:21;;;;;;;;;;;;;;;8.96;83.50;96037.28;5094618;28;19977;-80
2022/11/24 04:17:49;;;;;;;;;;;;;;;8.85;83.70;96037.88;5091533;28;19924;-78
2022/11/24 04:20:16;;;;;;;;;;;;;;;8.95;83.67;96038.19;5089251;28;19920;-79
2022/11/24 04:22:43;;;;;;;;;;;;;;;8.89;83.29;96041.09;5087740;28;20010;-79
2022/11/24 04:25:11;;;;;;;;;;;;;;;8.83;82.80;96044.03;5088980;28;20300;-79
2022/11/24 04:27:38;;;;;;;;;;;;;;;8.63;82.53;96042.53;5089340;28;20034;-77
2022/11/24 04:30:08;;;;;;;16.57;10.47;;;;;;;8.41;82.82;96046.34;5087119;28;20156;-79
2022/11/24 04:32:35;;;;;;;;;;;;;;;8.09;82.95;96054.00;5088939;28;20177;-78
2022/11/24 04:35:03;;;;;;;;;;;;;;;7.68;84.08;96057.84;5088348;28;19920;-79
2022/11/24 04:37:30;;;;;;;;;;;;;;;7.66;85.02;96062.25;5087621;28;19920;-78
2022/11/24 04:39:58;;;;;;;;;;;;;;;7.52;85.04;96062.09;5088671;28;19927;-81
2022/11/24 04:42:24;;;;;;;;;;;;;;;7.36;86.08;96063.72;5087225;28;20001;-77
2022/11/24 04:44:51;;;;;;;;;;;;;;;7.37;86.30;96060.28;5089003;28;20026;-76
2022/11/24 04:47:20;;;;;;;;;;;;;;;7.35;85.52;96059.50;5088519;28;20007;-79
2022/11/24 04:49:51;;;;;;;;;;;;;;;7.36;85.69;96061.16;5088545;28;20019;-80
2022/11/24 04:52:19;;;;;;;;;;;;;;;7.28;86.81;96064.13;5087109;28;19928;-76
2022/11/24 04:54:47;;;;;;;;;;;;;;;7.39;87.24;96072.16;5088550;28;19923;-77
2022/11/24 04:57:15;;;;;;;;;;;;;;;7.59;87.05;96073.75;5087059;28;19920;-77
2022/11/24 04:59:42;;;;;;;;;;;;;;;7.61;87.20;96077.09;5088410;28;19920;-79
2022/11/24 05:02:10;;;;;;;;;;;;;;;7.52;87.16;96069.81;5088336;28;20364;-78
2022/11/24 05:04:38;;;;;;;;;;;;;;;7.51;86.80;96064.72;5088168;28;19920;-80
2022/11/24 05:07:06;;;;;;;;;;;;;;;7.78;86.33;96078.81;5087165;28;19920;-79
2022/11/24 05:09:33;;;;;;;;;;;;;;;7.83;84.64;96077.66;5111638;27;20217;-80
2022/11/24 05:12:30;;;;;;;;;;;;;;;7.49;85.80;96079.44;5089398;28;20021;-78
2022/11/24 05:14:58;;;;;;;;;;;;;;;7.22;87.54;96079.88;5091650;28;20305;-78
2022/11/24 05:17:33;;;;;;;;;;;;;;;7.14;88.63;96087.13;5069881;28;19977;-77
2022/11/24 05:20:01;;;;;;;;;;;;;;;7.07;89.43;96087.47;5086741;28;20016;-80
2022/11/24 05:22:29;;;;;;;;;;;;;;;7.09;88.82;96086.50;5088003;28;19919;-79
2022/11/24 05:24:56;;;;;;;;;;;;;;;7.14;88.87;96087.13;5086775;28;19932;-79
2022/11/24 05:27:25;;;;;;;;;;;;;;;7.16;88.98;96089.63;5103418;28;20307;-79
2022/11/24 05:29:53;;;;;;;;;;;;;;;7.21;87.87;96092.81;5087455;28;20460;-79
2022/11/24 05:32:25;;;;;;;;;;;;;;;7.23;87.72;96080.72;5087819;28;20276;-81
2022/11/24 05:35:25;;;;;;;;;;;;;;;7.42;87.19;96089.19;5079772;28;19926;-80
2022/11/24 05:37:52;;;;;;;;;;;;;;;7.59;86.67;96086.63;5088025;28;19920;-79
2022/11/24 05:40:19;;;;;;;;;;;;;;;7.74;85.76;96098.75;5087494;28;19920;-80
2022/11/24 05:42:47;;;;;;;;;;;;;;;7.88;84.51;96086.03;5103252;28;19956;-78
2022/11/24 05:45:17;;;;;;;;;;;;;;;7.97;83.64;96098.47;5102789;28;19955;-79
2022/11/24 05:47:47;;;;;;;;;;;;;;;7.98;82.97;96092.38;5086818;28;19927;-78
2022/11/24 05:50:19;;;;;;;;;;;;;;;7.96;83.49;96101.94;5086040;28;19926;-81
2022/11/24 05:52:47;;;;;;;;;;;;;;;7.84;83.59;96105.13;5086315;28;19959;-80
2022/11/24 05:55:15;;;;;;;;;;;;;;;8.00;82.91;96100.88;5087524;28;19924;-80
2022/11/24 05:57:42;;;;;;;;;;;;;;;8.08;83.16;96113.34;5102926;28;19920;-80
2022/11/24 06:00:11;;;;;;;;;;;;;;;8.20;82.76;96105.84;5103167;28;20023;-79
2022/11/24 06:02:38;;;;;;;;;;;;;;;8.36;83.08;96117.97;5087221;28;20011;-78
2022/11/24 06:05:06;;;;;;;;;;;;;;;8.38;82.29;96113.56;5088230;28;19926;-79
2022/11/24 06:07:34;;;;;;;;;;;;;;;8.42;82.50;96115.06;5086306;28;20436;-81
2022/11/24 06:10:02;;;;;;;;;;;;;;;8.52;81.93;96116.25;5090646;28;19920;-78
2022/11/24 06:12:31;;;;;;;;;;;;;;;8.42;82.14;96118.50;5096662;28;20286;-80
2022/11/24 06:15:01;;;;;;;;;;;;;;;8.59;81.97;96115.03;5085712;28;20383;-80
2022/11/24 06:17:30;;;;;;;;;;;;;;;8.56;81.80;96108.28;5102455;28;19977;-78
2022/11/24 06:19:57;;;;;;;;;;;;;;;8.71;81.24;96110.06;5085354;28;20341;-80
2022/11/24 06:22:25;;;;;;;;;;;;;;;8.78;80.84;96113.13;5102282;28;19920;-79
2022/11/24 06:24:53;;;;;;;;;;;;;;;8.76;81.00;96123.53;5085805;28;20357;-81
2022/11/24 06:27:21;;;;;;;;;;;;;;;8.85;80.51;96122.22;5085852;28;19936;-80
2022/11/24 06:29:48;;;;;;;;;;;;;;;8.98;79.88;96116.31;5087307;28;20417;-80
2022/11/24 06:32:16;;;;;;;;;;;;;;;9.07;79.92;96117.56;5087423;28;19924;-80
2022/11/24 06:34:43;;;;;;;;;;;;;;;9.07;80.80;96127.88;5102645;28;20018;-80
2022/11/24 06:37:10;;;;;;;;;;;;;;;9.17;80.53;96118.72;5084979;28;20015;-80
2022/11/24 06:39:37;;;;;;;;;;;;;;;9.31;79.50;96126.56;5086369;28;19926;-79
2022/11/24 06:42:04;;;;;;;;;;;;;;;9.29;79.84;96127.56;5085733;28;19920;-80
2022/11/24 06:44:32;;;;;;;;;;;;;;;9.44;79.35;96132.69;5088177;28;19927;-79
2022/11/24 06:47:04;;;;;;;;;;;;;;;9.54;79.02;96128.66;5102970;28;20614;-81
2022/11/24 06:49:45;;;;;;;;;;;;;;;9.45;79.81;96134.38;5081023;28;19928;-78
2022/11/24 06:52:15;;;;;;;;;;;;;;;9.53;79.80;96136.53;5085608;28;20338;-79
2022/11/24 06:54:50;;;;;;;;;;;;;;;9.63;79.65;96146.25;5086486;28;20011;-81
2022/11/24 06:57:18;;;;;;;;;;;;;;;9.69;78.92;96134.72;5087187;28;19933;-78
2022/11/24 06:59:48;;;;;;;;;;;;;;;9.84;78.62;96147.63;5089470;28;19919;-79
2022/11/24 07:02:15;;;;;;;;;;;;;;;9.94;78.45;96152.25;5106524;28;20398;-78
2022/11/24 07:04:45;;;;;;;;;;;;;;;9.97;78.51;96142.59;5107165;28;19930;-78
2022/11/24 07:07:16;;;;;;;;;;;;;;;10.12;78.28;96152.06;5090736;28;19924;-80
2022/11/24 07:09:43;;;;;;;;;;;;;;;10.20;78.53;96154.22;5112379;28;20022;-78
2022/11/24 07:12:11;;;;;;;;;;;;;;;10.05;78.45;96155.09;5090095;28;20037;-80
2022/11/24 07:14:39;;;;;;;;;;;;;;;9.97;78.81;96157.28;5073306;28;19920;-77
2022/11/24 07:17:07;;;;;;;;;;;;;;;9.99;79.08;96158.03;5089833;28;19969;-79
2022/11/24 07:19:43;;;;;;;;;;;;;;;10.11;78.49;96155.59;5090541;28;19920;-81
2022/11/24 07:22:12;;;;;;;;;;;;;;;10.09;79.36;96157.41;5091737;28;19926;-79
2022/11/24 07:24:40;;;;;;;;;;;;;;;10.20;79.40;96160.22;5092865;28;19920;-78
2022/11/24 07:27:09;;;;;;;;;;;;;;;10.37;77.96;96165.25;5096661;28;19931;-80
2022/11/24 07:29:36;;;;;;;;;;;;;;;10.30;77.76;96160.53;5077124;28;19920;-77
2022/11/24 07:32:04;;;;;;;;;;;;;;;10.55;77.53;96158.97;5093974;28;19959;-80
2022/11/24 07:34:35;;;;;;;;;;;;;;;10.63;77.23;96161.13;5088753;28;20328;-78
2022/11/24 07:37:08;;;;;;;;;;;;;;;10.73;76.80;96154.47;5090388;28;19931;-79
2022/11/24 07:39:36;;;;;;;;;;;;;;;10.69;76.27;96157.31;5059187;28;19944;-80
2022/11/24 07:42:05;;;;;;;;;;;;;;;10.75;76.70;96162.13;5107489;28;19997;-81
2022/11/24 07:44:34;;;;;;;;;;;;;;;10.80;77.16;96154.94;5091574;28;19920;-79
2022/11/24 07:47:05;;;;;;;;;;;;;;;10.92;77.28;96155.00;5090016;28;19926;-78
2022/11/24 07:49:32;;;;;;;;;;;;;;;10.91;76.76;96158.53;5106043;28;19927;-80
2022/11/24 07:52:03;;;;;;;;;;;;;;;10.93;77.21;96159.25;5091144;28;19920;-78
2022/11/24 07:54:30;;;;;;;;;;;;;;;11.03;76.88;96157.75;5091938;28;20384;-80
2022/11/24 07:57:01;;;;;;;;;;;;;;;11.20;77.17;96154.97;5105997;28;20404;-77
2022/11/24 07:59:30;;;;;;;;;;;;;;;11.21;76.84;96148.84;5073317;28;19969;-78
2022/11/24 08:01:58;;;;;;;;;;;;;;;11.32;75.85;96156.78;5075694;28;19920;-80
2022/11/24 08:04:32;;;;;;;;;;;;;;;11.45;76.28;96149.91;5076233;28;19920;-78
2022/11/24 08:07:00;;;;;;;;;;;;;;;11.51;75.60;96150.44;5094643;28;19920;-78
2022/11/24 08:09:28;;;;;;;;;;;;;;;11.53;76.21;96151.19;5073141;28;20022;-79
2022/11/24 08:11:58;;;;;;;;;;;;;;;11.57;75.86;96150.88;5089509;28;20379;-79
2022/11/24 08:14:27;;;;;;;;;;;;;;;11.60;76.03;96152.47;5104634;28;19920;-76
2022/11/24 08:16:56;;;;;;;;;;;;;;;11.67;74.98;96140.78;5087506;28;19923;-80
2022/11/24 08:19:24;;;;;;;;;;;;;;;11.79;75.58;96153.78;5104348;28;20056;-81
2022/11/24 08:21:51;;;;;;;;;;;;;;;12.07;74.21;96150.25;5088560;28;20003;-80
2022/11/24 08:24:18;;;;;;;;;;;;;;;12.02;74.41;96149.69;5088922;28;19931;-79
2022/11/24 08:26:48;;;;;;;;;;;;;;;12.25;73.61;96146.44;5087413;28;20027;-81
2022/11/24 08:29:17;;;;;;;;;;;;;;;12.27;73.77;96141.97;5087680;28;19924;-79
2022/11/24 08:31:44;;;;;;;;;;;;;;;12.41;73.15;96148.81;5089163;28;19924;-77
2022/11/24 08:34:14;;;;;;;;;;;;;;;12.50;72.67;96143.84;5088991;28;19959;-77
2022/11/24 08:36:46;;;;;;;;;;;;;;;12.60;72.53;96152.69;5088583;28;19924;-81
2022/11/24 08:39:41;;;;;;;;;;;;;;;12.59;72.79;96151.00;5088076;28;19920;-84
2022/11/24 08:42:09;;;;;;;;;;;;;;;12.75;72.56;96141.25;5088390;28;19920;-79
2022/11/24 08:44:36;;;;;;;;;;;;;;;12.78;71.88;96142.78;5088765;28;20636;-80
2022/11/24 08:47:05;;;;;;;;;;;;;;;12.94;71.59;96146.03;5087676;28;19927;-78
2022/11/24 08:49:33;;;;;;;;;;;;;;;13.15;71.43;96134.13;5104574;28;19920;-81
2022/11/24 08:52:02;;;;;;;;;;;;;;;13.15;71.50;96143.72;5070531;28;19933;-80
2022/11/24 08:54:31;;;;;;;;;;;;;;;13.12;71.06;96146.53;5087376;28;19920;-79
2022/11/24 08:57:01;;;;;;;;;;;;;;;13.23;71.13;96146.63;5087068;28;20003;-80
2022/11/24 08:59:29;;;;;;;;;;;;;;;13.40;70.95;96154.88;5104028;28;20019;-80
2022/11/24 09:01:57;;;;;;;;;;;;;;;13.50;70.19;96155.03;5086501;28;19920;-77
2022/11/24 09:04:24;;;;;;;;;;;;;;;13.57;69.72;96151.06;5069835;28;19965;-80
2022/11/24 09:06:52;;;;;;;;;;;;;;;13.66;69.49;96150.41;5095768;28;19920;-80
2022/11/24 09:09:19;;;;;;;;;;;;;;;13.81;68.72;96144.09;5086604;28;19920;-80
2022/11/24 09:11:49;;;;;;;;;;;;;;;13.74;69.18;96148.94;5088787;28;20011;-81
2022/11/24 09:14:16;;;;;;;;;;;;;;;13.78;69.32;96149.53;5090002;28;19949;-77
2022/11/24 09:16:44;;;;;;;;;;;;;;;13.80;70.08;96148.47;5089298;28;19985;-79
2022/11/24 09:19:11;;;;;;;;;;;;;;;13.73;70.35;96143.81;5090060;28;19920;-77
2022/11/24 09:21:39;;;;;;;;;;;;;;;13.81;70.09;96142.31;5104609;28;19942;-80
2022/11/24 09:24:06;;;;;;;;;;;;;;;13.85;70.08;96148.13;5104159;28;19977;-79
2022/11/24 09:26:36;;;;;;;;;;;;;;;14.02;70.11;96154.72;5086681;28;19920;-79
2022/11/24 09:29:13;;;;;;;;;;;;;;;14.11;69.26;96152.28;5087862;28;19926;-80
2022/11/24 09:31:41;;;;;;;;;;;;;;;14.04;67.95;96147.59;5086449;28;19939;-78
2022/11/24 09:34:11;;;;;;;;;;;;;;;14.05;68.20;96142.31;5087551;28;19920;-80
2022/11/24 09:36:38;;;;;;;;;;;;;;;14.13;68.57;96142.56;5088423;28;19962;-79
2022/11/24 09:39:05;;;;;;;;;;;;;;;14.01;65.68;96143.47;5086420;28;19924;-81
2022/11/24 09:41:50;;;;;;;;;;;;;;;13.96;64.30;96140.38;5069782;28;19920;-81
2022/11/24 09:44:36;;;;;;;;;;;;;;;13.92;62.30;96125.94;5086698;28;19920;-80
2022/11/24 09:47:16;;;;;;;;;;;;;;;13.95;61.34;96128.28;5085983;28;19920;-79
2022/11/24 09:49:55;;;;;;;;;;;;;;;14.08;60.73;96120.41;5086191;28;19923;-78
2022/11/24 09:52:31;;;;;;;;;;;;;;;14.22;59.89;96121.03;5087375;28;19923;-80
2022/11/24 09:55:00;;;;;;;;;;;;;;;14.13;58.12;96123.50;5087122;28;20006;-79
2022/11/24 09:57:34;;;;;;;;;;;;;;;14.24;57.85;96120.94;5086092;28;19920;-79
2022/11/24 10:00:10;;;;;;;;;;;;;;;14.29;57.24;96111.88;5069409;28;19951;-80
2022/11/24 10:02:40;;;;;;;;;;;;;;;14.42;56.92;96122.19;5087413;28;20014;-77
2022/11/24 10:05:11;;;;;;;;;;;;;;;14.21;57.85;96116.78;5091288;28;19936;-79
2022/11/24 10:08:02;;;;;;;;;;;;;;;14.24;58.05;96121.75;5102674;28;19920;-77
2022/11/24 10:10:48;;;;;;;;;;;;;;;14.27;58.65;96115.50;5102833;28;20020;-79
2022/11/24 10:13:31;;;;;;;;;;;;;;;14.51;59.16;96116.28;5087493;28;19920;-81
2022/11/24 10:16:10;;;;;;;;;;;;;;;14.73;60.48;96116.31;5086199;28;20015;-81
2022/11/24 10:18:54;;;;;;;;;;;;;;;14.54;62.48;96114.28;5102052;28;19928;-80
2022/11/24 10:21:53;;;;;;;;;;;;;;;14.31;63.69;96109.13;5087588;28;19924;-80
2022/11/24 10:24:25;;;;;;;;;;;;;;;14.42;63.88;96112.63;5028088;28;19921;-77
2022/11/24 10:27:02;;;;;;;;;;;;;;;14.58;61.76;96114.88;5027618;28;20035;-78
2022/11/24 10:29:36;;;;;;;;;;;;;;;14.80;59.95;96119.25;5027711;28;19920;-79
2022/11/24 10:32:06;;;;;;;;;;;;;;;14.91;57.58;96117.50;5044109;28;19956;-79
2022/11/24 10:34:59;;;;;;;;;;;;;;;14.81;56.23;96121.75;5079976;28;19923;-79
2022/11/24 10:37:34;;;;;;;;;;;;;;;14.82;56.43;96122.59;5090893;28;19923;-80
2022/11/24 10:40:05;;;;;;;;;;;;;;;14.83;56.40;96119.88;5072263;28;20323;-79
2022/11/24 10:42:36;;;;;;;;;;;;;;;14.68;55.30;96124.47;5106242;28;19924;-79
2022/11/24 10:45:12;;;;;;;;;;;;;;;14.55;55.29;96126.34;5089418;28;19920;-80
2022/11/24 10:48:12;;;;;;;;;;;;;;;14.40;55.87;96119.72;5103523;28;20062;-79
2022/11/24 10:50:51;;;;;;;;;;;;;;;14.35;55.66;96124.44;5091070;28;19932;-79
2022/11/24 10:53:30;;;;;;;;;;;;;;;14.47;56.09;96127.88;5090343;28;19948;-78
2022/11/24 10:56:00;;;;;;;;;;;;;;;14.46;55.32;96124.47;5090677;28;20407;-78
2022/11/24 10:59:02;;;;;;;;;;;;;;;14.35;54.33;96124.44;5090825;28;20278;-82
2022/11/24 11:01:37;;;;;;;;;;;;;;;14.37;54.29;96132.97;5089181;28;19920;-78
2022/11/24 11:04:16;;;;;;;;;;;;;;;14.08;54.51;96130.81;5091954;28;20014;-77
2022/11/24 11:06:45;;;;;;;;;;;;;;;14.12;54.75;96132.25;5090582;28;19920;-78
2022/11/24 11:09:12;;;;;;;;;;;;;;;14.12;54.70;96130.47;5090277;28;19920;-76
2022/11/24 11:11:43;;;;;;;;;;;;;;;14.17;54.59;96133.59;5089101;28;19920;-77
2022/11/24 11:14:11;;;;;;;;;;;;;;;14.34;55.02;96127.97;5088728;28;19990;-79
2022/11/24 11:16:51;;;;;;;;;;;;;;;14.45;54.89;96130.59;5088647;28;19943;-77
2022/11/24 11:19:39;;;;;;;;;;;;;;;14.43;54.13;96137.69;5053927;28;19920;-76
2022/11/24 11:22:28;;;;;;;;;;;;;;;14.42;54.09;96136.06;5088660;28;19927;-79
2022/11/24 11:25:17;;;;;;;;;;;;;;;14.39;54.49;96136.28;5089997;28;19927;-79
2022/11/24 11:27:47;;;;;;;;;;;;;;;14.48;55.68;96140.81;5090078;28;19955;-81
2022/11/24 11:30:14;;;;;;;;;;;;;;;14.37;60.76;96139.94;5090034;28;20022;-79
2022/11/24 11:33:03;;;;;;;;;;;;;;;13.90;63.77;96148.63;5089764;28;19920;-80
2022/11/24 11:36:00;;;;;;;;;;;;;;;13.83;64.40;96152.63;5089519;28;19927;-79
2022/11/24 11:38:34;;;;;;;;;;;;;;;13.35;65.81;96156.16;5088204;28;19931;-80
2022/11/24 11:41:04;;;;;;;;;;;;;;;12.86;67.56;96164.72;5089606;28;19927;-79
2022/11/24 11:43:38;;;;;;;;;;;;;;;12.66;68.61;96167.00;5071436;28;19924;-81
2022/11/24 11:46:08;;;;;;;;;;;;;;;12.42;68.94;96169.50;5088630;28;19920;-80
2022/11/24 11:48:42;;;;;;;;;;;;;;;12.50;68.52;96172.41;5089646;28;19943;-82
2022/11/24 11:51:30;;;;;;;;;;;;;;;12.65;67.96;96168.78;5088106;28;19927;-78
2022/11/24 11:53:59;;;;;;;;;;;;;;;12.86;67.32;96172.50;5089631;28;19924;-78
2022/11/24 11:56:29;;;;;;;;;;;;;;;12.87;66.76;96171.59;5088871;28;19920;-80
2022/11/24 11:59:06;;;;;;;;;;;;;;;13.01;66.53;96181.88;5087987;28;19920;-80
2022/11/24 12:01:52;;;;;;;;;;;;;;;13.05;66.67;96177.31;5106671;28;19920;-78
2022/11/24 12:04:26;;;;;;;;;;;;;;;13.09;65.88;96176.16;5088511;28;19963;-79
2022/11/24 12:07:13;;;;;;;;;;;;;;;13.06;65.80;96171.19;5111165;28;19920;-80
2022/11/24 12:09:51;;;;;;;;;;;;;;;12.97;66.33;96174.38;5088161;28;19920;-79
2022/11/24 12:12:20;;;;;;;;;;;;;;;12.79;66.73;96184.28;5088860;28;20022;-83
2022/11/24 12:15:01;;;;;;;;;;;;;;;12.84;66.62;96187.38;5090315;28;20733;-80
2022/11/24 12:17:51;;;;;;;;;;;;;;;12.84;66.82;96187.38;5087135;28;19977;-81
2022/11/24 12:20:35;;;;;;;;;;;;;;;12.77;67.35;96178.34;5071257;28;19966;-80
2022/11/24 12:23:14;;;;;;;;;;;;;;;12.80;67.00;96188.53;5087772;28;19920;-80
2022/11/24 12:25:45;;;;;;;;;;;;;;;12.64;67.17;96185.31;5070648;28;19963;-81
2022/11/24 12:28:27;;;;;;;;;;;;;;;12.55;67.95;96190.28;5089091;28;20014;-80
2022/11/24 12:30:57;;;;;;;;;;;;;;;12.53;68.28;96203.38;5086932;28;19924;-80
2022/11/24 12:33:34;;;;;;;;;;;;;;;12.63;68.17;96199.22;5104691;28;19969;-82
2022/11/24 12:36:32;;;;;;;;;;;;;;;12.66;68.01;96193.81;5087148;28;20415;-79
2022/11/24 12:39:02;;;;;;;;;;;;;;;12.71;67.66;96193.53;5080418;28;19977;-78
2022/11/24 12:41:47;;;;;;;;;;;;;;;12.81;67.81;96197.16;5087446;28;19932;-79
2022/11/24 12:44:37;;;;;;;;;;;;;;;12.69;68.18;96200.59;5088462;28;19920;-82
2022/11/24 12:47:07;;;;;;;;;;;;;;;12.34;69.83;96200.34;5087267;28;19920;-80
2022/11/24 12:49:45;;;;;;;;;;;;;;;12.34;69.52;96197.75;5104154;28;19955;-78
2022/11/24 12:52:33;;;;;;;;;;;;;;;12.32;69.88;96196.19;5086893;28;20000;-78
2022/11/24 12:55:11;;;;;;;;;;;;;;;12.32;69.99;96199.63;5087078;28;20761;-79
2022/11/24 12:58:02;;;;;;;;;;;;;;;12.36;70.21;96195.88;5103816;28;19977;-78
2022/11/24 13:00:45;;;;;;;;;;;;;;;12.30;69.90;96206.69;5086812;28;19920;-79
2022/11/24 13:03:31;;;;;;;;;;;;;;;12.39;70.36;96203.44;5103659;28;19927;-78
2022/11/24 13:06:20;;;;;;;;;;;;;;;12.58;67.91;96206.50;5106797;28;20267;-77
2022/11/24 13:08:49;;;;;;;;;;;;;;;12.57;68.67;96204.00;5109286;28;19920;-78
2022/11/24 13:11:20;;;;;;;;;;;;;;;12.43;68.80;96209.25;5070047;28;19919;-78
2022/11/24 13:14:18;;;;;;;;;;;;;;;12.32;68.93;96210.00;5103073;28;20282;-78